createdAt,value
2018-12-01T00:00:10.921Z,1007.56
2018-12-01T00:01:10.932Z,1007.58
2018-12-01T00:02:10.948Z,1007.63
2018-12-01T00:03:10.961Z,1007.62
2018-12-01T00:04:10.988Z,1007.61
2018-12-01T00:05:10.985Z,1007.62
2018-12-01T00:06:11.035Z,1007.65
2018-12-01T00:07:11.012Z,1007.68
2018-12-01T00:08:11.033Z,1007.66
2018-12-01T00:09:11.042Z,1007.69
2018-12-01T00:10:11.056Z,1007.69
2018-12-01T00:11:11.067Z,1007.67
2018-12-01T00:12:11.124Z,1007.67
2018-12-01T00:13:11.096Z,1007.65
2018-12-01T00:14:11.111Z,1007.65
2018-12-01T00:15:11.127Z,1007.62
2018-12-01T00:16:11.136Z,1007.62
2018-12-01T00:17:11.156Z,1007.64
2018-12-01T00:18:11.162Z,1007.63
2018-12-01T00:19:11.275Z,1007.60
2018-12-01T00:20:11.192Z,1007.58
2018-12-01T00:21:11.198Z,1007.56
2018-12-01T00:22:11.212Z,1007.55
2018-12-01T00:23:11.230Z,1007.55
2018-12-01T00:24:11.240Z,1007.57
2018-12-01T00:25:11.313Z,1007.58
2018-12-01T00:26:11.268Z,1007.53
2018-12-01T00:27:11.280Z,1007.52
2018-12-01T00:28:11.296Z,1007.53
2018-12-01T00:29:11.316Z,1007.54
2018-12-01T00:30:11.328Z,1007.55
2018-12-01T00:31:11.332Z,1007.49
2018-12-01T00:32:11.354Z,1007.53
2018-12-01T00:33:11.357Z,1007.53
2018-12-01T00:34:11.376Z,1007.53
2018-12-01T00:35:11.388Z,1007.53
2018-12-01T00:36:11.401Z,1007.52
2018-12-01T00:37:11.414Z,1007.48
2018-12-01T00:38:11.483Z,1007.54
2018-12-01T00:39:11.446Z,1007.49
2018-12-01T00:40:11.479Z,1007.52
2018-12-01T00:41:11.476Z,1007.45
2018-12-01T00:42:11.478Z,1007.47
2018-12-01T00:43:11.495Z,1007.45
2018-12-01T00:44:11.506Z,1007.45
2018-12-01T00:45:11.519Z,1007.47
2018-12-01T00:46:11.534Z,1007.41
2018-12-01T00:47:11.655Z,1007.45
2018-12-01T00:48:11.559Z,1007.42
2018-12-01T00:49:11.573Z,1007.44
2018-12-01T00:50:11.584Z,1007.42
2018-12-01T00:51:11.597Z,1007.47
2018-12-01T00:52:11.633Z,1007.47
2018-12-01T00:53:11.622Z,1007.49
2018-12-01T00:54:11.639Z,1007.50
2018-12-01T00:55:11.654Z,1007.51
2018-12-01T00:56:11.675Z,1007.49
2018-12-01T00:57:11.680Z,1007.49
2018-12-01T00:58:11.696Z,1007.47
2018-12-01T00:59:11.733Z,1007.48
2018-12-01T01:00:11.719Z,1007.49
2018-12-01T01:01:11.734Z,1007.49
2018-12-01T01:02:11.742Z,1007.47
2018-12-01T01:03:11.763Z,1007.45
2018-12-01T01:04:11.789Z,1007.49
2018-12-01T01:05:11.796Z,1007.47
2018-12-01T01:06:11.799Z,1007.50
2018-12-01T01:07:11.813Z,1007.53
2018-12-01T01:08:11.821Z,1007.51
2018-12-01T01:09:11.837Z,1007.56
2018-12-01T01:10:11.860Z,1007.52
2018-12-01T01:11:11.864Z,1007.54
2018-12-01T01:12:11.879Z,1007.51
2018-12-01T01:13:11.887Z,1007.52
2018-12-01T01:14:11.907Z,1007.47
2018-12-01T01:15:11.918Z,1007.46
2018-12-01T01:16:11.934Z,1007.47
2018-12-01T01:17:11.944Z,1007.43
2018-12-01T01:18:11.966Z,1007.43
2018-12-01T01:19:11.969Z,1007.48
2018-12-01T01:20:11.982Z,1007.50
2018-12-01T01:21:11.996Z,1007.49
2018-12-01T01:22:12.009Z,1007.53
2018-12-01T01:23:12.022Z,1007.57
2018-12-01T01:24:12.035Z,1007.53
2018-12-01T01:25:12.050Z,1007.57
2018-12-01T01:26:12.061Z,1007.59
2018-12-01T01:27:12.112Z,1007.59
2018-12-01T01:28:12.103Z,1007.58
2018-12-01T01:29:12.111Z,1007.59
2018-12-01T01:30:12.116Z,1007.59
2018-12-01T01:31:12.126Z,1007.57
2018-12-01T01:32:12.145Z,1007.62
2018-12-01T01:33:12.163Z,1007.60
2018-12-01T01:34:12.173Z,1007.62
2018-12-01T01:35:12.192Z,1007.62
2018-12-01T01:36:12.198Z,1007.60
2018-12-01T01:37:12.210Z,1007.64
2018-12-01T01:38:12.219Z,1007.66
2018-12-01T01:39:12.240Z,1007.68
2018-12-01T01:40:12.251Z,1007.67
2018-12-01T01:41:12.258Z,1007.71
2018-12-01T01:42:12.290Z,1007.73
2018-12-01T01:43:12.285Z,1007.70
2018-12-01T01:44:12.298Z,1007.70
2018-12-01T01:45:12.312Z,1007.71
2018-12-01T01:46:12.320Z,1007.69
2018-12-01T01:47:12.344Z,1007.75
2018-12-01T01:48:12.375Z,1007.74
2018-12-01T01:49:12.366Z,1007.72
2018-12-01T01:50:12.376Z,1007.71
2018-12-01T01:51:12.392Z,1007.72
2018-12-01T01:52:12.399Z,1007.76
2018-12-01T01:53:12.420Z,1007.78
2018-12-01T01:54:12.431Z,1007.79
2018-12-01T01:55:12.459Z,1007.75
2018-12-01T01:56:12.462Z,1007.76
2018-12-01T01:57:12.465Z,1007.74
2018-12-01T01:58:12.483Z,1007.73
2018-12-01T01:59:12.493Z,1007.72
2018-12-01T02:00:12.511Z,1007.63
2018-12-01T02:01:12.524Z,1007.62
2018-12-01T02:02:12.533Z,1007.62
2018-12-01T02:03:12.545Z,1007.60
2018-12-01T02:04:12.556Z,1007.59
2018-12-01T02:05:12.569Z,1007.61
2018-12-01T02:06:12.586Z,1007.61
2018-12-01T02:07:12.598Z,1007.65
2018-12-01T02:08:12.612Z,1007.61
2018-12-01T02:09:12.626Z,1007.60
2018-12-01T02:10:12.641Z,1007.62
2018-12-01T02:11:12.650Z,1007.64
2018-12-01T02:12:12.662Z,1007.64
2018-12-01T02:13:12.677Z,1007.62
2018-12-01T02:14:12.693Z,1007.62
2018-12-01T02:15:12.704Z,1007.60
2018-12-01T02:16:12.714Z,1007.65
2018-12-01T02:17:12.726Z,1007.62
2018-12-01T02:18:12.744Z,1007.66
2018-12-01T02:19:12.848Z,1007.61
2018-12-01T02:20:12.766Z,1007.60
2018-12-01T02:21:12.779Z,1007.58
2018-12-01T02:22:12.795Z,1007.59
2018-12-01T02:23:12.807Z,1007.52
2018-12-01T02:24:12.817Z,1007.53
2018-12-01T02:25:12.861Z,1007.45
2018-12-01T02:26:12.844Z,1007.45
2018-12-01T02:27:12.859Z,1007.51
2018-12-01T02:28:12.875Z,1007.47
2018-12-01T02:29:12.885Z,1007.48
2018-12-01T02:30:12.903Z,1007.45
2018-12-01T02:31:12.911Z,1007.47
2018-12-01T02:32:12.922Z,1007.37
2018-12-01T02:33:12.944Z,1007.39
2018-12-01T02:34:12.951Z,1007.39
2018-12-01T02:35:12.967Z,1007.42
2018-12-01T02:36:12.987Z,1007.40
2018-12-01T02:37:13.013Z,1007.42
2018-12-01T02:38:13.043Z,1007.44
2018-12-01T02:39:13.012Z,1007.39
2018-12-01T02:40:13.029Z,1007.42
2018-12-01T02:41:13.037Z,1007.41
2018-12-01T02:42:13.055Z,1007.42
2018-12-01T02:43:13.083Z,1007.46
2018-12-01T02:44:13.086Z,1007.43
2018-12-01T02:45:13.099Z,1007.46
2018-12-01T02:46:13.111Z,1007.39
2018-12-01T02:47:13.118Z,1007.42
2018-12-01T02:48:13.132Z,1007.43
2018-12-01T02:49:13.170Z,1007.37
2018-12-01T02:50:13.159Z,1007.41
2018-12-01T02:51:13.203Z,1007.41
2018-12-01T02:52:13.182Z,1007.40
2018-12-01T02:53:13.196Z,1007.39
2018-12-01T02:54:13.206Z,1007.36
2018-12-01T02:55:13.222Z,1007.38
2018-12-01T02:56:13.234Z,1007.37
2018-12-01T02:57:13.252Z,1007.33
2018-12-01T02:58:13.268Z,1007.36
2018-12-01T02:59:13.304Z,1007.29
2018-12-01T03:00:13.293Z,1007.29
2018-12-01T03:01:13.305Z,1007.22
2018-12-01T03:02:13.311Z,1007.27
2018-12-01T03:03:13.326Z,1007.28
2018-12-01T03:04:13.344Z,1007.34
2018-12-01T03:05:13.380Z,1007.28
2018-12-01T03:06:13.370Z,1007.28
2018-12-01T03:07:13.380Z,1007.32
2018-12-01T03:08:13.388Z,1007.32
2018-12-01T03:09:13.405Z,1007.33
2018-12-01T03:38:58.028Z,1007.29
2018-12-01T03:39:58.009Z,1007.27
2018-12-01T03:41:50.140Z,1007.33
2018-12-01T03:42:50.122Z,1007.33
2018-12-01T03:44:42.027Z,1007.41
2018-12-01T03:45:42.017Z,1007.34
2018-12-01T03:47:33.942Z,1007.38
2018-12-01T03:48:33.929Z,1007.36
2018-12-01T03:50:25.843Z,1007.40
2018-12-01T03:51:25.845Z,1007.34
2018-12-01T03:53:17.788Z,1007.43
2018-12-01T03:54:17.750Z,1007.42
2018-12-01T03:56:09.694Z,1007.50
2018-12-01T03:57:09.692Z,1007.41
2018-12-01T03:59:01.581Z,1007.55
2018-12-01T04:00:01.595Z,1007.56
2018-12-01T04:01:53.517Z,1007.65
2018-12-01T04:02:53.502Z,1007.61
2018-12-01T04:04:45.431Z,1007.70
2018-12-01T04:05:45.438Z,1007.64
2018-12-01T04:07:37.374Z,1007.63
2018-12-01T04:08:37.356Z,1007.66
2018-12-01T04:10:29.482Z,1007.64
2018-12-01T04:11:29.488Z,1007.56
2018-12-01T04:13:21.418Z,1007.55
2018-12-01T04:14:21.405Z,1007.55
2018-12-01T04:16:13.317Z,1007.58
2018-12-01T04:17:13.325Z,1007.58
2018-12-01T04:19:05.249Z,1007.56
2018-12-01T04:20:05.232Z,1007.57
2018-12-01T04:21:57.164Z,1007.59
2018-12-01T04:22:57.147Z,1007.65
2018-12-01T04:24:49.061Z,1007.60
2018-12-01T04:25:49.061Z,1007.65
2018-12-01T04:27:41.005Z,1007.69
2018-12-01T04:28:41.006Z,1007.73
2018-12-01T04:30:32.907Z,1007.70
2018-12-01T04:31:32.913Z,1007.77
2018-12-01T04:33:24.848Z,1007.75
2018-12-01T04:34:24.838Z,1007.73
2018-12-01T04:36:16.754Z,1007.74
2018-12-01T04:37:16.761Z,1007.77
2018-12-01T04:39:08.693Z,1007.78
2018-12-01T04:40:08.692Z,1007.74
2018-12-01T04:42:00.626Z,1007.72
2018-12-01T04:43:00.618Z,1007.72
2018-12-01T04:44:53.061Z,1007.76
2018-12-01T04:45:53.052Z,1007.80
2018-12-01T04:47:45.037Z,1007.81
2018-12-01T04:48:44.981Z,1007.80
2018-12-01T04:50:36.911Z,1007.79
2018-12-01T04:51:36.900Z,1007.79
2018-12-01T04:53:28.873Z,1007.76
2018-12-01T04:54:28.809Z,1007.81
2018-12-01T04:56:20.718Z,1007.78
2018-12-01T04:57:20.724Z,1007.74
2018-12-01T04:59:12.650Z,1007.72
2018-12-01T05:00:12.634Z,1007.68
2018-12-01T05:02:04.573Z,1007.72
2018-12-01T05:03:04.555Z,1007.71
2018-12-01T05:04:56.594Z,1007.76
2018-12-01T05:05:56.464Z,1007.79
2018-12-01T05:07:48.398Z,1007.79
2018-12-01T05:08:49.401Z,1007.83
2018-12-01T05:10:40.302Z,1007.84
2018-12-01T05:11:40.301Z,1007.82
2018-12-01T05:13:32.234Z,1007.82
2018-12-01T05:14:32.217Z,1007.81
2018-12-01T05:16:24.138Z,1007.86
2018-12-01T05:17:24.139Z,1007.86
2018-12-01T05:19:16.060Z,1007.89
2018-12-01T05:20:16.118Z,1007.91
2018-12-01T05:22:08.464Z,1007.97
2018-12-01T05:23:08.493Z,1008.00
2018-12-01T05:25:00.383Z,1007.98
2018-12-01T05:26:00.375Z,1007.92
2018-12-01T05:27:52.387Z,1007.94
2018-12-01T05:28:52.317Z,1007.96
2018-12-01T05:30:44.296Z,1007.97
2018-12-01T05:31:44.303Z,1007.94
2018-12-01T05:33:36.229Z,1007.93
2018-12-01T05:34:36.213Z,1007.95
2018-12-01T05:36:28.122Z,1007.98
2018-12-01T05:37:28.137Z,1007.96
2018-12-01T05:39:20.059Z,1007.91
2018-12-01T05:40:20.051Z,1007.91
2018-12-01T05:42:11.972Z,1007.95
2018-12-01T05:43:11.964Z,1007.96
2018-12-01T05:45:03.877Z,1007.94
2018-12-01T05:46:03.874Z,1007.96
2018-12-01T05:47:55.831Z,1007.87
2018-12-01T05:48:55.793Z,1007.82
2018-12-01T05:50:47.707Z,1007.83
2018-12-01T05:51:47.712Z,1007.87
2018-12-01T05:53:39.637Z,1007.75
2018-12-01T05:54:39.637Z,1007.76
2018-12-01T05:56:31.536Z,1007.70
2018-12-01T05:57:31.543Z,1007.72
2018-12-01T05:59:23.465Z,1007.65
2018-12-01T06:00:23.458Z,1007.58
2018-12-01T06:02:15.383Z,1007.54
2018-12-01T06:03:15.393Z,1007.53
2018-12-01T06:05:07.282Z,1007.54
2018-12-01T06:06:07.286Z,1007.54
2018-12-01T06:07:59.230Z,1007.56
2018-12-01T06:08:59.209Z,1007.64
2018-12-01T06:10:51.117Z,1007.65
2018-12-01T06:11:51.129Z,1007.64
2018-12-01T06:13:43.052Z,1007.64
2018-12-01T06:14:43.035Z,1007.61
2018-12-01T06:16:34.959Z,1007.67
2018-12-01T06:17:34.956Z,1007.63
2018-12-01T06:19:26.886Z,1007.64
2018-12-01T06:20:26.876Z,1007.58
2018-12-01T06:22:18.782Z,1007.61
2018-12-01T06:23:18.807Z,1007.61
2018-12-01T06:25:10.801Z,1007.68
2018-12-01T06:26:10.770Z,1007.66
2018-12-01T06:28:02.630Z,1007.65
2018-12-01T06:29:02.671Z,1007.65
2018-12-01T06:30:55.068Z,1007.61
2018-12-01T06:31:55.046Z,1007.58
2018-12-01T06:33:47.035Z,1007.62
2018-12-01T06:34:46.958Z,1007.59
2018-12-01T06:36:38.866Z,1007.60
2018-12-01T06:37:38.877Z,1007.63
2018-12-01T06:39:30.799Z,1007.62
2018-12-01T06:40:30.814Z,1007.56
2018-12-01T06:42:22.691Z,1007.57
2018-12-01T06:43:22.747Z,1007.58
2018-12-01T06:45:14.636Z,1007.62
2018-12-01T06:46:14.620Z,1007.63
2018-12-01T06:48:06.556Z,1007.60
2018-12-01T06:49:06.542Z,1007.59
2018-12-01T06:50:58.440Z,1007.62
2018-12-01T06:51:58.469Z,1007.60
2018-12-01T06:53:50.444Z,1007.60
2018-12-01T06:54:50.361Z,1007.55
2018-12-01T06:56:42.262Z,1007.51
2018-12-01T06:57:42.301Z,1007.49
2018-12-01T06:59:34.210Z,1007.50
2018-12-01T07:00:34.196Z,1007.54
2018-12-01T07:02:26.609Z,1007.51
2018-12-01T07:03:26.617Z,1007.48
2018-12-01T07:05:18.541Z,1007.48
2018-12-01T07:06:18.532Z,1007.50
2018-12-01T07:08:10.457Z,1007.54
2018-12-01T07:09:10.446Z,1007.57
2018-12-01T07:11:02.350Z,1007.56
2018-12-01T07:12:02.365Z,1007.54
2018-12-01T07:13:54.301Z,1007.56
2018-12-01T07:14:54.283Z,1007.53
2018-12-01T07:16:46.177Z,1007.56
2018-12-01T07:17:46.223Z,1007.57
2018-12-01T07:19:38.123Z,1007.60
2018-12-01T07:20:38.114Z,1007.63
2018-12-01T07:22:30.017Z,1007.66
2018-12-01T07:23:30.025Z,1007.68
2018-12-01T07:25:21.981Z,1007.63
2018-12-01T07:26:21.952Z,1007.58
2018-12-01T07:28:14.091Z,1007.59
2018-12-01T07:29:14.086Z,1007.66
2018-12-01T07:31:05.996Z,1007.62
2018-12-01T07:32:06.002Z,1007.56
2018-12-01T07:33:57.936Z,1007.60
2018-12-01T07:34:57.908Z,1007.57
2018-12-01T07:36:49.824Z,1007.59
2018-12-01T07:37:49.835Z,1007.62
2018-12-01T07:39:41.751Z,1007.55
2018-12-01T07:40:41.741Z,1007.57
2018-12-01T07:42:33.644Z,1007.56
2018-12-01T07:43:33.647Z,1007.54
2018-12-01T07:45:25.602Z,1007.54
2018-12-01T07:46:25.584Z,1007.52
2018-12-01T07:48:17.508Z,1007.54
2018-12-01T07:49:17.495Z,1007.60
2018-12-01T07:51:09.413Z,1007.60
2018-12-01T07:52:09.409Z,1007.65
2018-12-01T07:54:01.374Z,1007.64
2018-12-01T07:55:01.401Z,1007.73
2018-12-01T07:56:53.271Z,1007.77
2018-12-01T07:57:53.324Z,1007.77
2018-12-01T07:59:45.229Z,1007.77
2018-12-01T08:00:45.207Z,1007.77
2018-12-01T08:02:37.117Z,1007.79
2018-12-01T08:03:37.124Z,1007.78
2018-12-01T08:05:29.057Z,1007.79
2018-12-01T08:06:29.041Z,1007.82
2018-12-01T08:08:20.948Z,1007.85
2018-12-01T08:09:20.955Z,1007.82
2018-12-01T08:11:12.881Z,1007.83
2018-12-01T08:12:12.867Z,1007.87
2018-12-01T08:14:04.815Z,1007.81
2018-12-01T08:15:04.804Z,1007.84
2018-12-01T08:16:56.739Z,1007.82
2018-12-01T08:17:56.741Z,1007.82
2018-12-01T08:19:48.686Z,1007.77
2018-12-01T08:20:48.682Z,1007.72
2018-12-01T08:22:40.637Z,1007.73
2018-12-01T08:23:40.605Z,1007.74
2018-12-01T08:25:32.557Z,1007.76
2018-12-01T08:26:32.532Z,1007.73
2018-12-01T08:28:24.927Z,1007.77
2018-12-01T08:29:24.937Z,1007.76
2018-12-01T08:31:16.864Z,1007.75
2018-12-01T08:32:16.858Z,1007.73
2018-12-01T08:34:08.773Z,1007.70
2018-12-01T08:35:08.768Z,1007.71
2018-12-01T08:37:00.698Z,1007.71
2018-12-01T08:38:00.674Z,1007.71
2018-12-01T08:39:52.630Z,1007.73
2018-12-01T08:40:52.586Z,1007.71
2018-12-01T08:42:44.492Z,1007.74
2018-12-01T08:43:45.158Z,1007.70
2018-12-01T08:45:36.460Z,1007.73
2018-12-01T08:46:36.433Z,1007.78
2018-12-01T08:48:28.372Z,1007.77
2018-12-01T08:49:28.380Z,1007.79
2018-12-01T08:51:20.333Z,1007.77
2018-12-01T08:52:20.310Z,1007.77
2018-12-01T08:54:12.232Z,1007.72
2018-12-01T08:55:12.224Z,1007.74
2018-12-01T08:57:04.134Z,1007.79
2018-12-01T08:58:04.151Z,1007.84
2018-12-01T08:59:56.067Z,1007.86
2018-12-01T09:00:56.058Z,1007.87
2018-12-01T09:02:47.965Z,1007.90
2018-12-01T09:03:47.987Z,1007.95
2018-12-01T09:05:39.900Z,1007.95
2018-12-01T09:06:39.888Z,1007.96
2018-12-01T09:08:31.828Z,1007.89
2018-12-01T09:09:31.799Z,1007.96
2018-12-01T09:11:23.742Z,1007.91
2018-12-01T09:12:23.722Z,1007.83
2018-12-01T09:14:15.646Z,1007.87
2018-12-01T09:15:15.635Z,1007.85
2018-12-01T09:17:07.545Z,1007.80
2018-12-01T09:18:07.554Z,1007.80
2018-12-01T09:19:59.481Z,1007.85
2018-12-01T09:20:59.469Z,1007.89
2018-12-01T09:22:51.375Z,1007.94
2018-12-01T09:23:51.385Z,1007.96
2018-12-01T09:25:43.335Z,1007.92
2018-12-01T09:26:43.314Z,1007.93
2018-12-01T09:28:35.294Z,1007.87
2018-12-01T09:29:35.262Z,1007.81
2018-12-01T09:31:27.228Z,1007.72
2018-12-01T09:32:27.173Z,1007.69
2018-12-01T09:34:19.114Z,1007.65
2018-12-01T09:35:19.134Z,1007.65
2018-12-01T09:37:11.036Z,1007.73
2018-12-01T09:38:11.040Z,1007.76
2018-12-01T09:40:02.965Z,1007.74
2018-12-01T09:41:02.958Z,1007.74
2018-12-01T09:42:54.861Z,1007.70
2018-12-01T09:43:54.869Z,1007.74
2018-12-01T09:45:46.796Z,1007.69
2018-12-01T09:46:46.782Z,1007.74
2018-12-01T09:48:38.709Z,1007.71
2018-12-01T09:49:38.721Z,1007.70
2018-12-01T09:51:30.660Z,1007.67
2018-12-01T09:52:30.651Z,1007.62
2018-12-01T09:54:22.591Z,1007.60
2018-12-01T09:55:22.576Z,1007.60
2018-12-01T09:57:14.503Z,1007.59
2018-12-01T09:58:14.495Z,1007.61
2018-12-01T10:00:06.430Z,1007.66
2018-12-01T10:01:06.418Z,1007.67
2018-12-01T10:02:58.325Z,1007.69
2018-12-01T10:03:58.332Z,1007.61
2018-12-01T10:05:50.314Z,1007.70
2018-12-01T10:06:50.254Z,1007.66
2018-12-01T10:08:42.163Z,1007.61
2018-12-01T10:09:42.170Z,1007.56
2018-12-01T10:11:34.092Z,1007.60
2018-12-01T10:12:34.083Z,1007.60
2018-12-01T10:14:26.000Z,1007.58
2018-12-01T10:15:25.999Z,1007.54
2018-12-01T10:17:17.928Z,1007.49
2018-12-01T10:18:17.915Z,1007.48
2018-12-01T10:20:09.846Z,1007.40
2018-12-01T10:21:09.836Z,1007.40
2018-12-01T10:23:01.742Z,1007.39
2018-12-01T10:24:01.750Z,1007.41
2018-12-01T10:25:53.694Z,1007.40
2018-12-01T10:26:53.678Z,1007.41
2018-12-01T10:28:45.617Z,1007.46
2018-12-01T10:29:45.590Z,1007.47
2018-12-01T10:31:37.518Z,1007.39
2018-12-01T10:32:37.507Z,1007.41
2018-12-01T10:34:29.418Z,1007.34
2018-12-01T10:35:29.432Z,1007.33
2018-12-01T10:37:21.354Z,1007.35
2018-12-01T10:38:21.342Z,1007.32
2018-12-01T10:40:13.287Z,1007.30
2018-12-01T10:41:13.310Z,1007.28
2018-12-01T10:43:05.176Z,1007.28
2018-12-01T10:44:05.180Z,1007.21
2018-12-01T10:45:58.130Z,1007.18
2018-12-01T10:46:57.126Z,1007.22
2018-12-01T10:48:49.031Z,1007.20
2018-12-01T10:49:49.050Z,1007.18
2018-12-01T10:51:40.972Z,1007.13
2018-12-01T10:52:40.965Z,1007.15
2018-12-01T10:54:32.870Z,1007.07
2018-12-01T10:55:32.899Z,1007.08
2018-12-01T10:57:24.834Z,1007.09
2018-12-01T10:58:24.918Z,1007.07
2018-12-01T10:59:24.813Z,1007.06
2018-12-01T11:00:24.831Z,1007.02
2018-12-01T11:01:24.870Z,1007.03
2018-12-01T11:02:24.858Z,1007.04
2018-12-01T11:03:24.876Z,1006.98
2018-12-01T11:04:24.886Z,1006.96
2018-12-01T11:05:24.907Z,1006.99
2018-12-01T11:06:24.921Z,1006.98
2018-12-01T11:07:24.932Z,1006.96
2018-12-01T11:08:24.945Z,1006.94
2018-12-01T11:09:24.960Z,1006.96
2018-12-01T11:10:24.987Z,1006.96
2018-12-01T11:11:24.989Z,1006.95
2018-12-01T11:12:25.012Z,1006.95
2018-12-01T11:13:25.019Z,1006.91
2018-12-01T11:14:25.038Z,1006.82
2018-12-01T11:15:25.053Z,1006.79
2018-12-01T11:16:25.071Z,1006.83
2018-12-01T11:17:25.079Z,1006.85
2018-12-01T11:18:25.118Z,1006.83
2018-12-01T11:19:25.115Z,1006.82
2018-12-01T11:20:25.157Z,1006.82
2018-12-01T11:21:25.154Z,1006.80
2018-12-01T11:22:25.154Z,1006.78
2018-12-01T11:23:25.186Z,1006.78
2018-12-01T11:24:25.187Z,1006.71
2018-12-01T11:25:25.201Z,1006.70
2018-12-01T11:26:25.239Z,1006.66
2018-12-01T11:27:25.231Z,1006.69
2018-12-01T11:28:25.244Z,1006.55
2018-12-01T11:29:25.270Z,1006.55
2018-12-01T11:30:25.306Z,1006.53
2018-12-01T11:31:25.296Z,1006.60
2018-12-01T11:32:25.304Z,1006.56
2018-12-01T11:33:25.318Z,1006.54
2018-12-01T11:34:25.373Z,1006.52
2018-12-01T11:35:25.350Z,1006.53
2018-12-01T11:36:25.362Z,1006.55
2018-12-01T11:37:25.383Z,1006.55
2018-12-01T11:38:25.397Z,1006.55
2018-12-01T11:39:25.408Z,1006.57
2018-12-01T11:40:25.427Z,1006.53
2018-12-01T11:41:25.450Z,1006.51
2018-12-01T11:42:25.459Z,1006.53
2018-12-01T11:43:25.468Z,1006.49
2018-12-01T11:44:25.488Z,1006.46
2018-12-01T11:45:25.565Z,1006.45
2018-12-01T11:46:25.518Z,1006.42
2018-12-01T11:47:25.573Z,1006.44
2018-12-01T11:48:25.550Z,1006.43
2018-12-01T11:49:25.563Z,1006.39
2018-12-01T11:50:25.581Z,1006.44
2018-12-01T11:51:25.592Z,1006.43
2018-12-01T11:52:25.615Z,1006.44
2018-12-01T11:53:25.624Z,1006.32
2018-12-01T11:54:25.643Z,1006.42
2018-12-01T11:55:25.658Z,1006.36
2018-12-01T11:56:25.672Z,1006.35
2018-12-01T11:57:25.691Z,1006.42
2018-12-01T11:58:25.721Z,1006.35
2018-12-01T11:59:25.731Z,1006.43
2018-12-01T12:00:25.769Z,1006.42
2018-12-01T12:01:25.754Z,1006.37
2018-12-01T12:02:25.784Z,1006.28
2018-12-01T12:03:25.834Z,1006.27
2018-12-01T12:04:25.795Z,1006.22
2018-12-01T12:05:25.811Z,1006.23
2018-12-01T12:06:25.877Z,1006.24
2018-12-01T12:07:25.847Z,1006.18
2018-12-01T12:08:25.867Z,1006.17
2018-12-01T12:09:25.875Z,1006.16
2018-12-01T12:10:25.895Z,1006.13
2018-12-01T12:11:25.941Z,1006.07
2018-12-01T12:12:25.959Z,1006.05
2018-12-01T12:13:25.984Z,1006.05
2018-12-01T12:14:25.957Z,1006.05
2018-12-01T12:15:25.981Z,1006.05
2018-12-01T12:16:25.986Z,1006.07
2018-12-01T12:17:26.001Z,1006.03
2018-12-01T12:18:26.021Z,1006.06
2018-12-01T12:19:26.114Z,1006.05
2018-12-01T12:20:26.054Z,1006.02
2018-12-01T12:21:26.064Z,1006.04
2018-12-01T12:22:26.078Z,1006.07
2018-12-01T12:23:26.097Z,1005.97
2018-12-01T12:24:26.121Z,1005.96
2018-12-01T12:25:26.138Z,1005.98
2018-12-01T12:26:26.153Z,1005.95
2018-12-01T12:27:26.163Z,1005.94
2018-12-01T12:28:26.204Z,1005.86
2018-12-01T12:29:26.191Z,1005.82
2018-12-01T12:30:26.278Z,1005.81
2018-12-01T12:31:26.223Z,1005.80
2018-12-01T12:32:26.238Z,1005.86
2018-12-01T12:33:26.261Z,1005.83
2018-12-01T12:34:26.277Z,1005.86
2018-12-01T12:35:26.287Z,1005.86
2018-12-01T12:36:26.309Z,1005.82
2018-12-01T12:37:26.321Z,1005.83
2018-12-01T12:38:26.347Z,1005.84
2018-12-01T12:39:26.353Z,1005.81
2018-12-01T12:40:26.372Z,1005.86
2018-12-01T12:41:26.388Z,1005.82
2018-12-01T12:42:26.404Z,1005.81
2018-12-01T12:43:26.416Z,1005.82
2018-12-01T12:44:26.435Z,1005.85
2018-12-01T12:45:26.459Z,1005.78
2018-12-01T12:46:26.550Z,1005.81
2018-12-01T12:47:26.482Z,1005.80
2018-12-01T12:48:26.514Z,1005.81
2018-12-01T12:49:26.512Z,1005.84
2018-12-01T12:50:26.527Z,1005.85
2018-12-01T12:51:26.539Z,1005.84
2018-12-01T12:52:26.560Z,1005.81
2018-12-01T12:53:26.717Z,1005.78
2018-12-01T12:54:26.624Z,1005.80
2018-12-01T12:55:26.609Z,1005.75
2018-12-01T12:56:26.663Z,1005.78
2018-12-01T12:57:26.645Z,1005.76
2018-12-01T12:58:26.655Z,1005.70
2018-12-01T12:59:26.678Z,1005.73
2018-12-01T13:00:26.685Z,1005.78
2018-12-01T13:01:26.725Z,1005.74
2018-12-01T13:02:26.720Z,1005.71
2018-12-01T13:03:26.733Z,1005.68
2018-12-01T13:04:26.751Z,1005.66
2018-12-01T13:05:26.768Z,1005.65
2018-12-01T13:06:26.789Z,1005.66
2018-12-01T13:07:26.799Z,1005.72
2018-12-01T13:08:26.810Z,1005.68
2018-12-01T13:09:26.828Z,1005.68
2018-12-01T13:10:26.845Z,1005.68
2018-12-01T13:11:26.861Z,1005.65
2018-12-01T13:12:26.894Z,1005.64
2018-12-01T13:13:26.898Z,1005.63
2018-12-01T13:14:26.931Z,1005.54
2018-12-01T13:15:26.927Z,1005.51
2018-12-01T13:16:26.937Z,1005.52
2018-12-01T13:17:26.955Z,1005.53
2018-12-01T13:18:26.965Z,1005.53
2018-12-01T13:19:26.984Z,1005.52
2018-12-01T13:20:27.083Z,1005.48
2018-12-01T13:21:27.017Z,1005.46
2018-12-01T13:22:27.029Z,1005.44
2018-12-01T13:23:27.045Z,1005.41
2018-12-01T13:24:27.062Z,1005.44
2018-12-01T13:25:27.086Z,1005.41
2018-12-01T13:26:27.094Z,1005.44
2018-12-01T13:27:27.141Z,1005.42
2018-12-01T13:28:27.164Z,1005.42
2018-12-01T13:29:27.139Z,1005.41
2018-12-01T13:30:27.155Z,1005.39
2018-12-01T13:31:27.171Z,1005.35
2018-12-01T13:32:27.192Z,1005.37
2018-12-01T13:33:27.216Z,1005.33
2018-12-01T13:34:27.224Z,1005.28
2018-12-01T13:35:27.236Z,1005.32
2018-12-01T13:36:27.254Z,1005.36
2018-12-01T13:37:27.270Z,1005.34
2018-12-01T13:38:27.281Z,1005.35
2018-12-01T13:39:27.327Z,1005.37
2018-12-01T13:40:27.313Z,1005.37
2018-12-01T13:41:27.374Z,1005.36
2018-12-01T13:42:27.343Z,1005.34
2018-12-01T13:43:27.362Z,1005.37
2018-12-01T13:44:27.378Z,1005.31
2018-12-01T13:45:27.389Z,1005.30
2018-12-01T13:46:27.478Z,1005.34
2018-12-01T13:47:27.469Z,1005.28
2018-12-01T13:48:27.434Z,1005.34
2018-12-01T13:49:27.456Z,1005.26
2018-12-01T13:50:27.465Z,1005.23
2018-12-01T13:51:27.483Z,1005.20
2018-12-01T13:52:27.497Z,1005.26
2018-12-01T13:53:27.512Z,1005.24
2018-12-01T13:54:27.554Z,1005.35
2018-12-01T13:55:27.547Z,1005.35
2018-12-01T13:56:27.565Z,1005.31
2018-12-01T13:57:27.578Z,1005.26
2018-12-01T13:58:27.591Z,1005.30
2018-12-01T13:59:27.608Z,1005.20
2018-12-01T14:00:27.628Z,1005.21
2018-12-01T14:01:27.637Z,1005.24
2018-12-01T14:02:27.655Z,1005.23
2018-12-01T14:03:27.675Z,1005.24
2018-12-01T14:04:27.688Z,1005.17
2018-12-01T14:05:27.703Z,1005.19
2018-12-01T14:06:27.713Z,1005.24
2018-12-01T14:07:27.741Z,1005.21
2018-12-01T14:08:27.743Z,1005.22
2018-12-01T14:09:27.773Z,1005.20
2018-12-01T14:10:27.773Z,1005.18
2018-12-01T14:11:27.794Z,1005.22
2018-12-01T14:12:27.812Z,1005.18
2018-12-01T14:13:27.828Z,1005.22
2018-12-01T14:14:27.837Z,1005.18
2018-12-01T14:15:27.852Z,1005.16
2018-12-01T14:16:27.922Z,1005.20
2018-12-01T14:17:27.881Z,1005.17
2018-12-01T14:18:27.903Z,1005.20
2018-12-01T14:19:27.911Z,1005.13
2018-12-01T14:20:27.928Z,1005.17
2018-12-01T14:21:27.942Z,1005.08
2018-12-01T14:22:27.976Z,1005.10
2018-12-01T14:23:27.971Z,1005.15
2018-12-01T14:24:27.994Z,1005.12
2018-12-01T14:25:28.029Z,1005.11
2018-12-01T14:26:28.021Z,1005.11
2018-12-01T14:27:28.039Z,1005.11
2018-12-01T14:28:28.057Z,1005.17
2018-12-01T14:29:28.068Z,1005.13
2018-12-01T14:30:28.083Z,1005.07
2018-12-01T14:31:28.102Z,1005.13
2018-12-01T14:32:28.108Z,1005.11
2018-12-01T14:33:28.129Z,1005.10
2018-12-01T14:34:28.142Z,1005.04
2018-12-01T14:35:28.195Z,1005.06
2018-12-01T14:36:28.176Z,1005.11
2018-12-01T14:37:28.188Z,1005.11
2018-12-01T14:38:28.203Z,1005.04
2018-12-01T14:39:28.270Z,1005.12
2018-12-01T14:40:28.235Z,1005.04
2018-12-01T14:41:28.244Z,1005.09
2018-12-01T14:42:28.305Z,1005.07
2018-12-01T14:43:28.282Z,1005.00
2018-12-01T14:44:28.287Z,1005.04
2018-12-01T14:45:28.361Z,1005.04
2018-12-01T14:46:28.318Z,1005.02